Terminal Aerodrome Forecast
Issued by NWS Albany, NY

Home | Current Version | Previous Version | Text Only | Print | Product List | Glossary On
Versions: 1 2 3 4 5 6 7 8 9 10 11 12 13 14 15 16
421
FTUS41 KALY 281120
TAFPOU
TAF
KPOU 281120Z 2812/2912 26004KT P6SM SKC
     FM281500 29008KT P6SM FEW080 SCT200
     FM290100 25003KT P6SM SCT070
     FM291100 20005KT P6SM BKN140=

USA.gov is the U.S. government's official web portal to all federal, state and local government web resources and services.